Time;durP1;ratioP1;P1;durP2;ratioP2;P2;SDS_P1;SDS_P2;PMS_P1;PMS_P2;Temp;Humidity;BMP_temperature;BMP_pressure;BME280_temperature;BME280_humidity;BME280_pressure;Samples;Min_cycle;Max_cycle;Signal;HPM_P1;HPM_P2
2021/10/16 00:00:01;;;;;;;;;;;8.20;96.00;;;;;;5053614;28;19920;-75
2021/10/16 00:02:26;;;;;;;;;;;8.20;96.00;;;;;;5055040;28;19909;-75
2021/10/16 00:04:52;;;;;;;;;;;8.20;96.00;;;;;;5054553;28;19908;-75
2021/10/16 00:07:17;;;;;;;;;;;8.10;96.00;;;;;;5054442;28;19909;-75
2021/10/16 00:09:42;;;;;;;;;;;8.10;96.00;;;;;;5054332;28;19959;-76
2021/10/16 00:12:08;;;;;;;;;;;8.00;96.00;;;;;;5054274;28;19928;-75
2021/10/16 00:14:33;;;;;;;;;;;8.00;96.10;;;;;;5054615;28;20285;-75
2021/10/16 00:16:59;;;;;;;;;;;8.00;96.10;;;;;;5053689;28;19917;-75
2021/10/16 00:19:24;;;;;;;;;;;7.90;96.10;;;;;;5036613;28;19916;-75
2021/10/16 00:21:50;;;;;;;;;;;7.90;96.10;;;;;;5054232;28;19909;-75
2021/10/16 00:24:15;;;;;;;;;;;7.90;96.10;;;;;;5054420;28;19916;-75
2021/10/16 00:26:41;;;;;;;;;;;7.80;96.10;;;;;;5053782;28;19908;-75
2021/10/16 00:29:06;;;;;;;;;;;7.80;96.10;;;;;;5053259;28;19913;-75
2021/10/16 00:31:32;;;;;;;;;;;7.80;96.20;;;;;;5054238;28;19916;-75
2021/10/16 00:33:57;;;;;;;;;;;7.80;96.10;;;;;;5050529;28;19920;-75
2021/10/16 00:36:23;;;;;;;;;;;7.80;96.00;;;;;;5033909;28;19909;-75
2021/10/16 00:38:48;;;;;;;;;;;7.80;95.90;;;;;;5040550;28;19966;-75
2021/10/16 00:41:13;;;;;;;;;;;7.80;95.90;;;;;;5054155;28;19908;-75
2021/10/16 00:43:39;;;;;;;;;;;7.80;95.90;;;;;;5036322;28;19920;-75
2021/10/16 00:46:05;;;;;;;;;;;7.80;95.90;;;;;;5053741;28;19924;-75
2021/10/16 00:48:30;;;;;;;;;;;7.80;95.80;;;;;;5053754;28;19920;-75
2021/10/16 00:50:56;;;;;;;;;;;7.70;95.80;;;;;;5053281;28;19979;-75
2021/10/16 00:53:22;;;;;;;;;;;7.70;95.80;;;;;;5053415;28;19916;-75
2021/10/16 00:55:51;;;;;;;;;;;7.70;95.80;;;;;;5053932;28;19952;-75
2021/10/16 00:58:17;;;;;;;;;;;7.70;95.60;;;;;;5053216;28;19999;-75
2021/10/16 01:00:42;;;;;;;;;;;7.70;95.50;;;;;;5053893;28;19978;-75
2021/10/16 01:03:08;;;;;;;;;;;7.60;95.50;;;;;;5053463;28;20416;-75
2021/10/16 01:05:34;;;;;;;;;;;7.60;95.80;;;;;;5053575;28;19917;-74
2021/10/16 01:08:01;;;;;;;;;;;7.60;95.50;;;;;;5052493;28;20029;-74
2021/10/16 01:10:26;;;;;;;;;;;7.60;95.50;;;;;;5033921;28;19928;-74
2021/10/16 01:12:51;;;;;;;;;;;7.60;95.50;;;;;;5033608;28;19917;-75
2021/10/16 01:15:18;;;;;;;;;;;7.60;95.40;;;;;;5034356;28;19962;-75
2021/10/16 01:17:44;;;;;;;;;;;7.60;95.40;;;;;;5016144;28;19910;-75
2021/10/16 01:20:20;;;;;;;;;;;7.60;95.40;;;;;;5048473;28;20447;-74
2021/10/16 01:22:45;;;;;;;;;;;7.60;95.30;;;;;;5053569;28;20270;-75
2021/10/16 01:25:12;;;;;;;;;;;7.50;95.20;;;;;;5053696;28;19916;-75
2021/10/16 01:27:38;;;;;;;;;;;7.50;95.10;;;;;;5018202;28;19952;-75
2021/10/16 01:30:07;;;;;;;;;;;7.40;95.20;;;;;;5033438;28;20400;-74
2021/10/16 01:32:36;;;;;;;;;;;7.40;95.30;;;;;;5033721;28;19924;-75
2021/10/16 01:35:02;;;;;;;;;;;7.30;95.20;;;;;;5033037;28;19910;-75
2021/10/16 01:37:28;;;;;;;;;;;7.30;95.20;;;;;;5048306;28;19915;-75
2021/10/16 01:39:53;;;;;;;;;;;7.30;95.20;;;;;;5052488;28;19912;-76
2021/10/16 01:42:19;;;;;;;;;;;7.20;95.30;;;;;;5053304;28;19919;-75
2021/10/16 01:44:44;;;;;;;;;;;7.10;95.50;;;;;;5052454;28;19917;-75
2021/10/16 01:47:09;;;;;;;;;;;7.10;95.70;;;;;;5052995;28;19929;-75
2021/10/16 01:49:36;;;;;;;;;;;7.20;95.70;;;;;;5052957;28;19932;-75
2021/10/16 01:52:02;;;;;;;;;;;7.20;95.70;;;;;;5053279;28;20358;-75
2021/10/16 01:54:27;;;;;;;;;;;7.20;95.60;;;;;;5053185;28;19913;-75
2021/10/16 01:56:53;;;;;;;;;;;7.30;95.60;;;;;;5052929;28;19920;-75
2021/10/16 01:59:19;;;;;;;;;;;7.20;95.60;;;;;;5053121;28;19909;-75
2021/10/16 02:01:45;;;;;;;;;;;7.30;95.60;;;;;;5047599;28;19940;-75
2021/10/16 02:04:11;;;;;;;;;;;7.30;95.60;;;;;;5033227;28;20365;-75
2021/10/16 02:06:36;;;;;;;;;;;7.30;95.60;;;;;;5033267;28;19916;-74
2021/10/16 02:09:02;;;;;;;;;;;7.30;95.40;;;;;;5041459;28;20408;-75
2021/10/16 02:11:28;;;;;;;;;;;7.40;95.40;;;;;;5055724;28;19912;-74
2021/10/16 02:13:53;;;;;;;;;;;7.30;95.40;;;;;;5056811;28;20312;-75
2021/10/16 02:16:19;;;;;;;;;;;7.30;95.30;;;;;;5056362;28;19987;-75
2021/10/16 02:18:44;;;;;;;;;;;7.30;95.40;;;;;;5056455;28;20000;-75
2021/10/16 02:21:10;;;;;;;;;;;7.30;95.50;;;;;;5055327;28;19967;-75
2021/10/16 02:23:35;;;;;;;;;;;7.40;95.50;;;;;;5038868;28;19909;-75
2021/10/16 02:26:00;;;;;;;;;;;7.30;95.30;;;;;;5056674;28;19909;-75
2021/10/16 02:28:26;;;;;;;;;;;7.30;95.30;;;;;;5056632;28;20389;-74
2021/10/16 02:30:51;;;;;;;;;;;7.30;95.40;;;;;;5055743;28;19948;-75
2021/10/16 02:33:17;;;;;;;;;;;7.30;95.50;;;;;;5056307;28;19978;-74
2021/10/16 02:35:42;;;;;;;;;;;7.30;95.40;;;;;;5056404;28;19916;-76
2021/10/16 02:38:08;;;;;;;;;;;7.40;95.40;;;;;;5043247;28;19909;-76
2021/10/16 02:40:34;;;;;;;;;;;7.40;95.40;;;;;;5056277;28;20025;-75
2021/10/16 02:43:00;;;;;;;;;;;7.40;95.50;;;;;;5056296;28;19995;-75
2021/10/16 02:45:26;;;;;;;;;;;7.40;95.60;;;;;;5055874;28;19909;-76
2021/10/16 02:47:51;;;;;;;;;;;7.50;95.60;;;;;;5055261;28;19932;-75
2021/10/16 02:50:17;;;;;;;;;;;7.50;95.60;;;;;;5056200;28;19912;-75
2021/10/16 02:52:42;;;;;;;;;;;7.60;95.60;;;;;;5056288;28;19917;-75
2021/10/16 02:55:08;;;;;;;;;;;7.60;95.50;;;;;;5055794;28;20289;-75
2021/10/16 02:57:33;;;;;;;;;;;7.70;95.40;;;;;;5055634;28;19913;-76
2021/10/16 02:59:59;;;;;;;;;;;7.70;95.30;;;;;;5055506;28;19983;-76
2021/10/16 03:02:25;;;;;;;;;;;7.70;95.50;;;;;;5055874;28;19992;-75
2021/10/16 03:04:50;;;;;;;;;;;7.80;95.60;;;;;;5038142;28;19948;-75
2021/10/16 03:07:16;;;;;;;;;;;7.90;95.50;;;;;;5055767;28;19963;-76
2021/10/16 03:09:41;;;;;;;;;;;8.00;95.50;;;;;;5055448;28;20281;-75
2021/10/16 03:12:07;;;;;;;;;;;8.00;95.40;;;;;;5055069;28;19932;-75
2021/10/16 03:14:32;;;;;;;;;;;8.10;95.30;;;;;;5055333;28;19909;-76
2021/10/16 03:16:58;;;;;;;;;;;8.10;95.30;;;;;;5055702;28;19909;-75
2021/10/16 03:19:23;;;;;;;;;;;8.10;95.30;;;;;;5037831;28;19916;-75
2021/10/16 03:21:49;;;;;;;;;;;8.10;95.30;;;;;;5055071;28;19913;-75
2021/10/16 03:24:14;;;;;;;;;;;8.10;95.20;;;;;;5055117;28;20369;-75
2021/10/16 03:26:40;;;;;;;;;;;8.10;95.40;;;;;;5055561;28;19920;-75
2021/10/16 03:29:05;;;;;;;;;;;8.10;95.40;;;;;;5054890;28;20365;-75
2021/10/16 03:31:30;;;;;;;;;;;8.20;95.50;;;;;;5046913;28;20309;-75
2021/10/16 03:33:56;;;;;;;;;;;8.20;95.50;;;;;;5035769;28;19963;-76
2021/10/16 03:36:21;;;;;;;;;;;8.20;95.40;;;;;;5034237;28;19955;-75
2021/10/16 03:38:47;;;;;;;;;;;8.30;95.40;;;;;;5041391;28;19913;-75
2021/10/16 03:41:12;;;;;;;;;;;8.30;95.50;;;;;;5055315;28;19909;-75
2021/10/16 03:43:38;;;;;;;;;;;8.30;95.50;;;;;;5054779;28;19969;-75
2021/10/16 03:46:03;;;;;;;;;;;8.40;95.50;;;;;;5055172;28;19909;-75
2021/10/16 03:48:28;;;;;;;;;;;8.40;95.40;;;;;;5054586;28;19921;-76
2021/10/16 03:50:54;;;;;;;;;;;8.50;95.40;;;;;;5036662;28;19999;-76
2021/10/16 03:53:19;;;;;;;;;;;8.50;95.30;;;;;;5054930;28;19920;-75
2021/10/16 03:55:45;;;;;;;;;;;8.50;95.40;;;;;;5055076;28;19908;-75
2021/10/16 03:58:10;;;;;;;;;;;8.50;95.50;;;;;;5036388;28;19908;-75
2021/10/16 04:00:36;;;;;;;;;;;8.50;95.50;;;;;;5037161;28;20377;-75
2021/10/16 04:03:05;;;;;;;;;;;8.60;95.50;;;;;;5035020;28;19909;-75
2021/10/16 04:05:31;;;;;;;;;;;8.60;95.40;;;;;;5036355;28;20336;-76
2021/10/16 04:07:57;;;;;;;;;;;8.60;95.40;;;;;;5034645;28;19909;-75
2021/10/16 04:10:22;;;;;;;;;;;8.70;95.40;;;;;;5053630;28;19916;-75
2021/10/16 04:12:48;;;;;;;;;;;8.70;95.40;;;;;;5054074;28;19917;-76
2021/10/16 04:15:13;;;;;;;;;;;8.70;95.40;;;;;;5054299;28;19917;-76
2021/10/16 04:17:39;;;;;;;;;;;8.70;95.40;;;;;;5054670;28;19915;-76
2021/10/16 04:20:04;;;;;;;;;;;8.70;95.50;;;;;;5054506;28;19915;-76
2021/10/16 04:22:31;;;;;;;;;;;8.60;95.60;;;;;;5054182;28;19916;-76
2021/10/16 04:24:56;;;;;;;;;;;8.70;95.50;;;;;;5036664;28;19909;-76
2021/10/16 04:27:23;;;;;;;;;;;8.70;95.60;;;;;;5053896;28;19943;-76
2021/10/16 04:29:49;;;;;;;;;;;8.70;95.60;;;;;;5035924;28;20011;-75
2021/10/16 04:32:15;;;;;;;;;;;8.80;95.60;;;;;;5036026;28;20055;-76
2021/10/16 04:34:40;;;;;;;;;;;8.80;95.50;;;;;;5035861;28;20434;-75
2021/10/16 04:37:06;;;;;;;;;;;8.90;95.50;;;;;;5054194;28;19915;-76
2021/10/16 04:39:31;;;;;;;;;;;8.90;95.40;;;;;;5053680;28;19913;-76
2021/10/16 04:41:57;;;;;;;;;;;8.80;95.30;;;;;;5035710;28;19909;-76
2021/10/16 04:44:22;;;;;;;;;;;8.70;95.40;;;;;;5054026;28;19915;-76
2021/10/16 04:46:47;;;;;;;;;;;8.70;95.60;;;;;;5054164;28;20392;-76
2021/10/16 04:49:13;;;;;;;;;;;8.70;95.70;;;;;;5053463;28;20361;-75
2021/10/16 04:51:41;;;;;;;;;;;8.70;95.70;;;;;;5053781;28;20356;-76
2021/10/16 04:54:06;;;;;;;;;;;8.80;95.70;;;;;;5053978;28;19909;-75
2021/10/16 04:56:32;;;;;;;;;;;8.80;95.60;;;;;;5053473;28;19909;-76
2021/10/16 04:58:57;;;;;;;;;;;8.80;95.50;;;;;;5053251;28;19916;-74
2021/10/16 05:01:23;;;;;;;;;;;8.80;95.50;;;;;;5051871;28;19913;-76
2021/10/16 05:03:48;;;;;;;;;;;8.80;95.60;;;;;;5053850;28;19909;-76
2021/10/16 05:06:13;;;;;;;;;;;8.90;95.60;;;;;;5053800;28;19916;-76
2021/10/16 05:08:40;;;;;;;;;;;9.00;95.60;;;;;;5053314;28;19917;-76
2021/10/16 05:11:06;;;;;;;;;;;9.00;95.50;;;;;;5053154;28;19931;-75
2021/10/16 05:13:31;;;;;;;;;;;9.20;95.50;;;;;;5035629;28;19917;-75
2021/10/16 05:15:56;;;;;;;;;;;9.20;95.40;;;;;;5053660;28;19916;-76
2021/10/16 05:18:23;;;;;;;;;;;9.20;95.30;;;;;;5053505;28;20320;-76
2021/10/16 05:20:52;;;;;;;;;;;9.20;95.30;;;;;;5035187;28;19963;-76
2021/10/16 05:23:18;;;;;;;;;;;9.20;95.40;;;;;;5053738;28;20254;-76
2021/10/16 05:25:44;;;;;;;;;;;9.20;95.30;;;;;;5053003;28;20365;-76
2021/10/16 05:28:10;;;;;;;;;;;9.30;95.30;;;;;;5053491;28;19909;-76
2021/10/16 05:30:35;;;;;;;;;;;9.30;95.30;;;;;;5035177;28;19999;-76
2021/10/16 05:33:01;;;;;;;;;;;9.20;95.20;;;;;;5035555;28;20004;-75
2021/10/16 05:35:26;;;;;;;;;;;9.10;95.30;;;;;;5053500;28;19909;-75
2021/10/16 05:37:51;;;;;;;;;;;9.10;95.50;;;;;;5053453;28;20361;-75
2021/10/16 05:40:18;;;;;;;;;;;9.10;95.50;;;;;;5052030;28;20419;-76
2021/10/16 05:42:43;;;;;;;;;;;9.20;95.50;;;;;;5053341;28;19916;-76
2021/10/16 05:45:09;;;;;;;;;;;9.20;95.50;;;;;;5055810;28;20309;-75
2021/10/16 05:47:36;;;;;;;;;;;9.30;95.40;;;;;;5056843;28;19967;-76
2021/10/16 05:50:05;;;;;;;;;;;9.30;95.40;;;;;;5057306;28;19909;-75
2021/10/16 05:52:31;;;;;;;;;;;9.30;95.40;;;;;;5057185;28;20450;-77
2021/10/16 05:54:56;;;;;;;;;;;9.30;95.30;;;;;;5056870;28;19955;-76
2021/10/16 05:57:22;;;;;;;;;;;9.30;95.30;;;;;;5056420;28;19912;-77
2021/10/16 05:59:47;;;;;;;;;;;9.20;95.30;;;;;;5056686;28;19919;-77
2021/10/16 06:02:12;;;;;;;;;;;9.20;95.40;;;;;;5057170;28;20023;-76
2021/10/16 06:04:38;;;;;;;;;;;9.30;95.40;;;;;;5057220;28;19948;-76
2021/10/16 06:07:03;;;;;;;;;;;9.30;95.70;;;;;;5056973;28;19909;-77
2021/10/16 06:09:29;;;;;;;;;;;9.30;95.30;;;;;;5056045;28;19913;-76
2021/10/16 06:11:54;;;;;;;;;;;9.30;95.40;;;;;;5056931;28;20392;-77
2021/10/16 06:14:20;;;;;;;;;;;9.30;95.30;;;;;;5057120;28;20373;-75
2021/10/16 06:16:45;;;;;;;;;;;9.40;95.40;;;;;;5056902;28;20395;-75
2021/10/16 06:19:10;;;;;;;;;;;9.40;95.30;;;;;;5056616;28;19916;-75
2021/10/16 06:21:36;;;;;;;;;;;9.40;95.30;;;;;;5056831;28;20278;-77
2021/10/16 06:24:01;;;;;;;;;;;9.40;95.30;;;;;;5056387;28;19916;-76
2021/10/16 06:26:27;;;;;;;;;;;9.40;95.40;;;;;;5056655;28;20050;-77
2021/10/16 06:28:52;;;;;;;;;;;9.40;95.40;;;;;;5056372;28;20003;-77
2021/10/16 06:31:18;;;;;;;;;;;9.40;95.60;;;;;;5056441;28;20011;-76
2021/10/16 06:33:43;;;;;;;;;;;9.40;95.30;;;;;;5056554;28;19917;-76
2021/10/16 06:36:09;;;;;;;;;;;9.40;95.40;;;;;;5056346;28;19931;-76
2021/10/16 06:38:34;;;;;;;;;;;9.50;95.40;;;;;;5055692;28;20296;-76
2021/10/16 06:41:02;;;;;;;;;;;9.50;95.40;;;;;;5056359;28;19913;-76
2021/10/16 06:43:27;;;;;;;;;;;9.50;95.40;;;;;;5056130;28;20403;-76
2021/10/16 06:45:53;;;;;;;;;;;9.50;95.30;;;;;;5056416;28;19908;-76
2021/10/16 06:48:18;;;;;;;;;;;9.50;95.40;;;;;;5055872;28;19921;-77
2021/10/16 06:50:44;;;;;;;;;;;9.60;95.40;;;;;;5056226;28;19916;-78
2021/10/16 06:53:09;;;;;;;;;;;9.60;95.40;;;;;;5055303;28;19921;-76
2021/10/16 06:55:35;;;;;;;;;;;9.70;95.40;;;;;;5055504;28;19912;-77
2021/10/16 06:58:00;;;;;;;;;;;9.70;95.30;;;;;;5055901;28;20046;-77
2021/10/16 07:00:26;;;;;;;;;;;9.80;95.30;;;;;;5055715;28;19909;-77
2021/10/16 07:02:51;;;;;;;;;;;9.80;95.30;;;;;;5056092;28;19920;-77
2021/10/16 07:05:17;;;;;;;;;;;9.80;95.30;;;;;;5055948;28;19909;-77
2021/10/16 07:07:42;;;;;;;;;;;9.90;95.30;;;;;;5055562;28;20254;-77
2021/10/16 07:10:08;;;;;;;;;;;9.90;95.30;;;;;;5055567;28;19908;-77
2021/10/16 07:12:35;;;;;;;;;;;10.00;95.30;;;;;;5055692;28;19921;-77
2021/10/16 07:15:00;;;;;;;;;;;10.00;95.20;;;;;;5055686;28;20347;-77
2021/10/16 07:17:26;;;;;;;;;;;10.00;95.20;;;;;;5056015;28;19991;-77
2021/10/16 07:19:51;;;;;;;;;;;10.00;95.20;;;;;;5055534;28;20361;-77
2021/10/16 07:22:18;;;;;;;;;;;10.10;95.30;;;;;;5055181;28;19917;-77
2021/10/16 07:24:43;;;;;;;;;;;10.10;95.30;;;;;;5055608;28;20273;-77
2021/10/16 07:27:09;;;;;;;;;;;10.10;95.20;;;;;;5055617;28;19954;-78
2021/10/16 07:29:34;;;;;;;;;;;10.20;95.20;;;;;;5055194;28;19909;-78
2021/10/16 07:31:59;;;;;;;;;;;10.20;95.30;;;;;;5055424;28;20292;-78
2021/10/16 07:34:25;;;;;;;;;;;10.20;95.20;;;;;;5055491;28;19909;-78
2021/10/16 07:36:50;;;;;;;;;;;10.20;95.20;;;;;;5054979;28;19916;-78
2021/10/16 07:39:16;;;;;;;;;;;10.30;95.20;;;;;;5055037;28;19913;-78
2021/10/16 07:41:46;;;;;;;;;;;10.30;95.20;;;;;;5055208;28;19916;-78
2021/10/16 07:44:12;;;;;;;;;;;10.40;95.20;;;;;;5055515;28;20365;-77
2021/10/16 07:46:38;;;;;;;;;;;10.40;95.20;;;;;;5055256;28;20023;-76
2021/10/16 07:49:03;;;;;;;;;;;10.40;95.20;;;;;;5054833;28;19920;-77
2021/10/16 07:51:28;;;;;;;;;;;10.50;95.30;;;;;;5054520;28;19962;-77
2021/10/16 07:53:54;;;;;;;;;;;10.50;95.30;;;;;;5055001;28;19909;-76
2021/10/16 07:56:19;;;;;;;;;;;10.50;95.20;;;;;;5054830;28;19919;-76
2021/10/16 07:58:45;;;;;;;;;;;10.50;95.20;;;;;;5054686;28;19935;-76
2021/10/16 08:01:10;;;;;;;;;;;10.60;95.30;;;;;;5054519;28;19920;-76
2021/10/16 08:03:36;;;;;;;;;;;10.60;95.30;;;;;;5054767;28;19909;-77
2021/10/16 08:06:01;;;;;;;;;;;10.60;95.20;;;;;;5054237;28;19909;-77
2021/10/16 08:08:30;;;;;;;;;;;10.70;95.20;;;;;;5054295;28;19952;-78
2021/10/16 08:10:56;;;;;;;;;;;10.70;95.20;;;;;;5054592;28;19908;-77
2021/10/16 08:13:21;;;;;;;;;;;10.70;95.20;;;;;;5054547;28;20295;-76
2021/10/16 08:15:47;;;;;;;;;;;10.80;95.20;;;;;;5054566;28;19916;-77
2021/10/16 08:18:12;;;;;;;;;;;10.80;95.50;;;;;;5054290;28;19909;-77
2021/10/16 08:20:38;;;;;;;;;;;10.80;95.30;;;;;;5053920;28;19909;-77
2021/10/16 08:23:05;;;;;;;;;;;10.80;95.20;;;;;;5054715;28;19915;-77
2021/10/16 08:25:31;;;;;;;;;;;10.90;95.30;;;;;;5054395;28;19920;-77
2021/10/16 08:27:56;;;;;;;;;;;10.90;95.30;;;;;;5054334;28;19909;-77
2021/10/16 08:30:22;;;;;;;;;;;11.00;95.30;;;;;;5054184;28;19999;-77
2021/10/16 08:32:47;;;;;;;;;;;11.00;95.30;;;;;;5054176;28;19959;-77
2021/10/16 08:35:13;;;;;;;;;;;11.00;95.20;;;;;;5053839;28;19909;-77
2021/10/16 08:37:38;;;;;;;;;;;11.10;95.30;;;;;;5054232;28;19909;-76
2021/10/16 08:40:04;;;;;;;;;;;11.10;95.30;;;;;;5053763;28;19920;-76
2021/10/16 08:42:30;;;;;;;;;;;11.10;95.30;;;;;;5054079;28;19962;-77
2021/10/16 08:44:59;;;;;;;;;;;11.10;95.30;;;;;;5053977;28;19909;-79
2021/10/16 08:47:34;;;;;;;;;;;11.10;95.30;;;;;;5053865;28;20361;-78
2021/10/16 08:50:00;;;;;;;;;;;11.20;95.40;;;;;;5053306;28;19917;-77
2021/10/16 08:52:25;;;;;;;;;;;11.30;95.40;;;;;;5053875;28;19923;-77
2021/10/16 08:54:51;;;;;;;;;;;11.30;95.30;;;;;;5053853;28;19909;-77
2021/10/16 08:57:16;;;;;;;;;;;11.30;95.30;;;;;;5054041;28;19909;-77
2021/10/16 08:59:42;;;;;;;;;;;11.40;95.30;;;;;;5053640;28;19916;-77
2021/10/16 09:02:08;;;;;;;;;;;11.40;95.30;;;;;;5053924;28;19909;-77
2021/10/16 09:04:35;;;;;;;;;;;11.40;95.30;;;;;;5053328;28;19927;-78
2021/10/16 09:07:16;;;;;;;;;;;11.50;95.40;;;;;;5053871;28;20003;-77
2021/10/16 09:09:42;;;;;;;;;;;11.50;95.30;;;;;;5035547;28;19913;-77
2021/10/16 09:12:11;;;;;;;;;;;11.50;95.30;;;;;;5053681;28;19945;-77
2021/10/16 09:14:43;;;;;;;;;;;11.60;95.30;;;;;;5053703;28;19954;-78
2021/10/16 09:17:11;;;;;;;;;;;11.60;95.30;;;;;;5053083;28;19913;-77
2021/10/16 09:19:38;;;;;;;;;;;11.70;95.30;;;;;;5048923;28;19909;-77
2021/10/16 09:22:06;;;;;;;;;;;11.70;95.30;;;;;;5033746;28;19920;-77
2021/10/16 09:24:34;;;;;;;;;;;11.70;95.30;;;;;;5033536;28;19913;-77
2021/10/16 09:27:00;;;;;;;;;;;11.70;95.30;;;;;;5033523;28;19909;-77
2021/10/16 09:29:30;;;;;;;;;;;11.80;95.40;;;;;;5043089;28;19909;-77
2021/10/16 09:31:59;;;;;;;;;;;11.80;95.40;;;;;;5053042;28;19976;-77
2021/10/16 09:34:32;;;;;;;;;;;11.90;95.40;;;;;;5053420;28;20361;-77
2021/10/16 09:37:08;;;;;;;;;;;11.90;95.30;;;;;;5053440;28;20354;-77
2021/10/16 09:39:34;;;;;;;;;;;11.90;95.30;;;;;;5053064;28;19955;-77
2021/10/16 09:42:00;;;;;;;;;;;12.00;95.30;;;;;;5053284;28;19995;-77
2021/10/16 09:44:28;;;;;;;;;;;12.10;95.30;;;;;;5053426;28;20425;-76
2021/10/16 09:46:55;;;;;;;;;;;12.10;95.30;;;;;;5052761;28;20281;-77
2021/10/16 09:49:26;;;;;;;;;;;12.10;95.30;;;;;;5053216;28;19963;-78
2021/10/16 09:51:52;;;;;;;;;;;12.20;95.60;;;;;;5053198;28;20353;-75
2021/10/16 09:54:17;;;;;;;;;;;12.20;95.50;;;;;;5053207;28;19908;-76
2021/10/16 09:56:43;;;;;;;;;;;12.20;95.30;;;;;;5035455;28;19909;-77
2021/10/16 09:59:10;;;;;;;;;;;12.30;95.40;;;;;;5053001;28;20015;-77
2021/10/16 10:01:36;;;;;;;;;;;12.30;95.40;;;;;;5052426;28;19940;-77
2021/10/16 10:04:03;;;;;;;;;;;12.40;95.30;;;;;;5053168;28;19908;-76
2021/10/16 10:06:29;;;;;;;;;;;12.30;95.30;;;;;;5053081;28;19913;-76
2021/10/16 10:08:56;;;;;;;;;;;12.40;95.30;;;;;;5052843;28;19913;-76
2021/10/16 10:11:21;;;;;;;;;;;12.40;95.30;;;;;;5053107;28;19908;-76
2021/10/16 10:13:49;;;;;;;;;;;12.50;95.30;;;;;;5053142;28;20273;-75
2021/10/16 10:16:15;;;;;;;;;;;12.40;95.30;;;;;;5052769;28;19916;-76
2021/10/16 10:19:00;;;;;;;;;;;12.50;95.40;;;;;;5052749;28;20288;-76
2021/10/16 10:21:29;;;;;;;;;;;12.50;95.40;;;;;;5052999;28;19999;-77
2021/10/16 10:23:58;;;;;;;;;;;12.50;95.40;;;;;;5053027;28;20055;-76
2021/10/16 10:26:25;;;;;;;;;;;12.50;95.40;;;;;;5052899;28;19953;-76
2021/10/16 10:28:57;;;;;;;;;;;12.60;95.40;;;;;;5052917;28;20325;-76
2021/10/16 10:31:41;;;;;;;;;;;12.60;95.30;;;;;;5053209;28;19920;-76
2021/10/16 10:34:10;;;;;;;;;;;12.60;95.40;;;;;;5056576;28;19920;-77
2021/10/16 10:36:43;;;;;;;;;;;12.70;95.40;;;;;;5038666;28;19916;-76
2021/10/16 10:39:27;;;;;;;;;;;12.80;95.40;;;;;;5056157;28;19928;-75
2021/10/16 10:41:53;;;;;;;;;;;12.80;95.30;;;;;;5056350;28;19955;-76
2021/10/16 10:44:53;;;;;;;;;;;12.80;95.30;;;;;;5055650;28;19908;-76
2021/10/16 10:47:25;;;;;;;;;;;12.90;95.30;;;;;;4994780;28;19918;-74
2021/10/16 10:49:55;;;;;;;;;;;12.90;95.30;;;;;;4995027;28;19921;-74
2021/10/16 10:52:22;;;;;;;;;;;13.00;95.40;;;;;;4994719;28;20405;-75
2021/10/16 10:55:06;;;;;;;;;;;13.10;95.40;;;;;;4994905;28;19910;-74
2021/10/16 10:57:41;;;;;;;;;;;13.10;95.30;;;;;;4994836;28;19917;-75
2021/10/16 11:00:06;;;;;;;;;;;13.20;95.30;;;;;;4978014;28;19960;-75
2021/10/16 11:02:32;;;;;;;;;;;13.30;95.40;;;;;;4994320;28;19921;-76
2021/10/16 11:04:59;;;;;;;;;;;13.40;95.40;;;;;;4994700;28;20382;-75
2021/10/16 11:07:30;;;;;;;;;;;13.40;95.20;;;;;;4994645;28;20358;-75
2021/10/16 11:09:57;;;;;;;;;;;13.40;95.20;;;;;;4994608;28;19927;-77
2021/10/16 11:12:30;;;;;;;;;;;13.40;95.30;;;;;;4978203;28;19918;-76
2021/10/16 11:14:57;;;;;;;;;;;13.40;95.40;;;;;;4993932;28;19910;-76
2021/10/16 11:17:23;;;;;;;;;;;13.50;95.40;;;;;;4994326;28;19909;-75
2021/10/16 11:19:55;;;;;;;;;;;13.60;95.30;;;;;;4994505;28;19910;-76
2021/10/16 11:22:22;;;;;;;;;;;13.60;95.40;;;;;;5051919;28;19921;-76
2021/10/16 11:24:48;;;;;;;;;;;13.70;95.30;;;;;;5055576;28;19939;-75
2021/10/16 11:27:19;;;;;;;;;;;13.70;95.30;;;;;;5037734;28;19971;-76
2021/10/16 11:29:45;;;;;;;;;;;13.80;95.30;;;;;;5055571;28;20416;-79
2021/10/16 11:32:16;;;;;;;;;;;13.80;95.30;;;;;;5055399;28;20020;-79
2021/10/16 11:35:02;;;;;;;;;;;13.90;95.30;;;;;;5055448;28;19909;-79
2021/10/16 11:37:41;;;;;;;;;;;14.00;95.40;;;;;;5054795;28;20266;-79
2021/10/16 11:40:08;;;;;;;;;;;14.20;95.30;;;;;;5055429;28;19909;-79
2021/10/16 11:42:34;;;;;;;;;;;14.30;95.30;;;;;;5054362;28;20436;-78
2021/10/16 11:45:00;;;;;;;;;;;14.40;95.20;;;;;;5055282;28;19939;-78
2021/10/16 11:47:25;;;;;;;;;;;14.50;95.20;;;;;;5054677;28;20369;-80
2021/10/16 11:49:51;;;;;;;;;;;14.60;95.20;;;;;;5055220;28;19926;-79
2021/10/16 11:52:25;;;;;;;;;;;14.60;95.10;;;;;;5055015;28;20434;-79
2021/10/16 11:55:09;;;;;;;;;;;14.70;95.20;;;;;;5055167;28;19923;-79
2021/10/16 11:57:35;;;;;;;;;;;14.80;95.30;;;;;;5054509;28;19908;-79
2021/10/16 12:00:19;;;;;;;;;;;15.00;95.20;;;;;;5054661;28;20399;-79
2021/10/16 12:02:44;;;;;;;;;;;15.00;95.20;;;;;;5054816;28;19909;-79
2021/10/16 12:05:13;;;;;;;;;;;15.10;95.20;;;;;;5054954;28;20355;-80
2021/10/16 12:07:39;;;;;;;;;;;15.10;95.20;;;;;;5054972;28;19991;-79
2021/10/16 12:10:18;;;;;;;;;;;15.20;95.20;;;;;;5054698;28;20353;-79
2021/10/16 12:13:02;;;;;;;;;;;15.20;95.10;;;;;;5054175;28;19916;-80
2021/10/16 12:15:39;;;;;;;;;;;15.20;95.10;;;;;;5054651;28;20004;-79
2021/10/16 12:18:04;;;;;;;;;;;15.10;95.20;;;;;;5054497;28;19916;-80
2021/10/16 12:20:47;;;;;;;;;;;15.10;95.10;;;;;;5054643;28;19966;-80
2021/10/16 12:23:12;;;;;;;;;;;14.90;95.00;;;;;;5054532;28;19923;-80
2021/10/16 12:25:45;;;;;;;;;;;14.80;95.10;;;;;;5054100;28;19999;-79
2021/10/16 12:28:10;;;;;;;;;;;14.70;95.10;;;;;;5054433;28;19913;-80
2021/10/16 12:30:36;;;;;;;;;;;14.70;95.30;;;;;;5054372;28;19909;-80
2021/10/16 12:33:05;;;;;;;;;;;14.70;95.30;;;;;;5036486;28;20070;-80
2021/10/16 12:35:32;;;;;;;;;;;14.80;95.30;;;;;;5054414;28;19958;-79
2021/10/16 12:37:58;;;;;;;;;;;14.70;95.20;;;;;;5054243;28;19909;-80
2021/10/16 12:40:37;;;;;;;;;;;14.70;95.20;;;;;;5053731;28;19916;-78
2021/10/16 12:43:03;;;;;;;;;;;14.70;95.20;;;;;;5053979;28;19932;-80
2021/10/16 12:45:37;;;;;;;;;;;14.50;95.10;;;;;;5036190;28;20272;-80
2021/10/16 12:48:20;;;;;;;;;;;14.50;95.30;;;;;;5049582;28;19943;-80
2021/10/16 12:50:53;;;;;;;;;;;14.50;95.30;;;;;;5033871;28;20309;-78
2021/10/16 12:53:18;;;;;;;;;;;14.40;95.30;;;;;;5034363;28;20067;-81
2021/10/16 12:55:45;;;;;;;;;;;14.40;95.20;;;;;;5033522;28;19959;-81
2021/10/16 12:58:10;;;;;;;;;;;14.30;95.20;;;;;;5034190;28;19913;-82
2021/10/16 13:00:43;;;;;;;;;;;14.20;95.40;;;;;;5040423;28;19920;-82
2021/10/16 13:03:09;;;;;;;;;;;14.20;95.30;;;;;;5036034;28;19908;-83
2021/10/16 13:05:35;;;;;;;;;;;14.20;95.30;;;;;;5054188;28;20030;-83
2021/10/16 13:08:01;;;;;;;;;;;14.30;95.40;;;;;;5053873;28;19955;-83
2021/10/16 13:10:27;;;;;;;;;;;14.20;95.20;;;;;;5053887;28;20388;-82
2021/10/16 13:12:54;;;;;;;;;;;14.20;95.30;;;;;;5053337;28;21240;-82
2021/10/16 13:15:20;;;;;;;;;;;14.20;95.40;;;;;;5054020;28;20365;-84
2021/10/16 13:17:46;;;;;;;;;;;14.20;95.40;;;;;;5036227;28;19908;-84
2021/10/16 13:20:12;;;;;;;;;;;14.20;95.30;;;;;;5054976;28;19913;-85
2021/10/16 13:22:38;;;;;;;;;;;14.20;95.30;;;;;;5053901;28;19917;-82
2021/10/16 13:25:04;;;;;;;;;;;14.10;95.30;;;;;;5053298;28;20365;-81
2021/10/16 13:27:29;;;;;;;;;;;14.10;95.40;;;;;;5053451;28;20358;-82
2021/10/16 13:29:55;;;;;;;;;;;14.10;95.40;;;;;;5053447;28;19916;-80
2021/10/16 13:32:21;;;;;;;;;;;14.10;95.80;;;;;;5050599;28;19925;-81
2021/10/16 13:34:48;;;;;;;;;;;14.30;95.60;;;;;;5031164;28;20430;-81
2021/10/16 13:37:14;;;;;;;;;;;14.60;95.40;;;;;;5031405;28;19936;-81
2021/10/16 13:39:40;;;;;;;;;;;14.90;95.30;;;;;;5030928;28;19952;-80
2021/10/16 13:42:05;;;;;;;;;;;15.00;95.00;;;;;;5031333;28;19987;-82
2021/10/16 13:44:31;;;;;;;;;;;15.10;95.10;;;;;;5031150;28;19956;-82
2021/10/16 13:46:56;;;;;;;;;;;15.20;95.10;;;;;;5031684;28;20420;-80
2021/10/16 13:49:22;;;;;;;;;;;15.50;94.90;;;;;;5039255;28;19917;-81
2021/10/16 13:51:47;;;;;;;;;;;15.70;94.70;;;;;;5031133;28;19936;-81
2021/10/16 13:54:13;;;;;;;;;;;15.70;94.60;;;;;;5030535;28;20273;-81
2021/10/16 13:56:38;;;;;;;;;;;15.80;94.50;;;;;;5031071;28;20040;-81
2021/10/16 13:59:04;;;;;;;;;;;15.70;94.40;;;;;;5031027;28;20354;-81
2021/10/16 14:01:30;;;;;;;;;;;15.70;94.40;;;;;;5042576;28;19916;-82
2021/10/16 14:03:55;;;;;;;;;;;15.70;94.40;;;;;;5050783;28;19916;-81
2021/10/16 14:06:21;;;;;;;;;;;15.60;94.40;;;;;;5051080;28;19909;-81
2021/10/16 14:08:46;;;;;;;;;;;15.60;94.40;;;;;;5039397;28;20381;-81
2021/10/16 14:11:12;;;;;;;;;;;15.60;94.30;;;;;;5035740;28;20445;-81
2021/10/16 14:13:38;;;;;;;;;;;15.50;94.20;;;;;;5037033;28;19917;-81
2021/10/16 14:16:04;;;;;;;;;;;15.30;94.20;;;;;;5040976;28;19944;-81
2021/10/16 14:18:29;;;;;;;;;;;15.20;94.30;;;;;;5039789;28;19956;-81
2021/10/16 14:20:55;;;;;;;;;;;15.10;94.30;;;;;;5036915;28;19909;-81